Geelong, Australia
Current Conditions -  °F | °C
As of 7:30 AM on Saturday 25 Oct 2014 (Local Time) from YMAV Reporting Station
Overcast Overcast  
Wind Chill: 57°   Ceiling: 1800
Heat Index: 57°   Visibility: 6mi
Dew Point: 50°   Wind: 5mph
Humidity: 77%   Direction: 280°W
Pressure: 30.03"   Gusts: NA
Location:  38.15°S, 144.36°E
Report Text: YMAV 242030Z AUTO 28004KT 9999 // OVC018 14/10 Q1017
Loading
Personal Weather Stations






























Interactive Weather Map
Tropical Storm Tracking
New forecast layout! Learn more

10-Day Weather Forecast

Advertisements
Track Severe Weather on mobile